KELN/ELN METAR and TAF weather

Enter ICAO airport designator
Station Type Date Time Source
KELN METAR 2019/06/24 22:53 UTC NOAA

KELN 242253Z AUTO 30020KT 10SM CLR 22/03 A2987 RMK AO2 PK WND 31026/2251 SLP108 T02220033


Station Type Date Time Source
KELN Decoded METAR 2019/06/24 22:53 UTC NOAA

ELLENSBURG BOWERS FIELD, WA, United States (KELN) 47-02N 120-32W 519M
Jun 24, 2019 - 06:53 PM EDT / 2019.06.24 2253 UTC
Wind: from the WNW (300 degrees) at 23 MPH (20 KT):0
Visibility: 10 mile(s):0
Sky conditions: clear
Temperature: 72.0 F (22.2 C)
Dew Point: 37.9 F (3.3 C)
Relative Humidity: 28%
Pressure (altimeter): 29.87 in. Hg (1011 hPa)
ob: KELN 242253Z AUTO 30020KT 10SM CLR 22/03 A2987 RMK AO2 PK WND 31026/2251 SLP108 T02220033
cycle: 23

Station Type Date Time Source
KELN TAF UTC NOAA

Error!

Example: see airport list